sensor_id;sensor_type;location;lat;lon;timestamp;temperature;humidity
7077;DHT22;3579;48.956;9.154;2023-12-20T00:01:51;16.20;55.00
7077;DHT22;3579;48.956;9.154;2023-12-20T00:04:17;16.20;55.60
7077;DHT22;3579;48.956;9.154;2023-12-20T00:06:43;16.20;55.10
7077;DHT22;3579;48.956;9.154;2023-12-20T00:09:09;16.20;55.10
7077;DHT22;3579;48.956;9.154;2023-12-20T00:11:35;16.20;55.20
7077;DHT22;3579;48.956;9.154;2023-12-20T00:14:01;16.10;55.10
7077;DHT22;3579;48.956;9.154;2023-12-20T00:16:27;16.10;55.10
7077;DHT22;3579;48.956;9.154;2023-12-20T00:18:53;16.10;55.10
7077;DHT22;3579;48.956;9.154;2023-12-20T00:21:19;16.10;55.70
7077;DHT22;3579;48.956;9.154;2023-12-20T00:23:45;16.10;55.20
7077;DHT22;3579;48.956;9.154;2023-12-20T00:26:11;16.10;55.20
7077;DHT22;3579;48.956;9.154;2023-12-20T00:28:37;16.00;55.20
7077;DHT22;3579;48.956;9.154;2023-12-20T00:31:03;16.00;55.20
7077;DHT22;3579;48.956;9.154;2023-12-20T00:33:30;16.00;55.20
7077;DHT22;3579;48.956;9.154;2023-12-20T00:35:56;16.00;55.20
7077;DHT22;3579;48.956;9.154;2023-12-20T00:38:22;16.00;55.30
7077;DHT22;3579;48.956;9.154;2023-12-20T00:40:48;16.00;55.30
7077;DHT22;3579;48.956;9.154;2023-12-20T00:43:15;15.90;55.30
7077;DHT22;3579;48.956;9.154;2023-12-20T00:45:41;15.90;55.30
7077;DHT22;3579;48.956;9.154;2023-12-20T00:48:07;15.90;55.30
7077;DHT22;3579;48.956;9.154;2023-12-20T00:50:33;15.90;55.40
7077;DHT22;3579;48.956;9.154;2023-12-20T00:52:59;15.90;55.30
7077;DHT22;3579;48.956;9.154;2023-12-20T00:55:25;15.90;55.40
7077;DHT22;3579;48.956;9.154;2023-12-20T00:57:51;15.80;55.40
7077;DHT22;3579;48.956;9.154;2023-12-20T01:00:19;15.80;55.40
7077;DHT22;3579;48.956;9.154;2023-12-20T01:02:45;15.80;55.40
7077;DHT22;3579;48.956;9.154;2023-12-20T01:05:15;15.80;55.50
7077;DHT22;3579;48.956;9.154;2023-12-20T01:07:41;15.80;55.50
7077;DHT22;3579;48.956;9.154;2023-12-20T01:10:07;15.80;55.50
7077;DHT22;3579;48.956;9.154;2023-12-20T01:12:33;15.80;55.60
7077;DHT22;3579;48.956;9.154;2023-12-20T01:14:59;15.70;55.60
7077;DHT22;3579;48.956;9.154;2023-12-20T01:17:25;15.70;55.50
7077;DHT22;3579;48.956;9.154;2023-12-20T01:19:51;15.50;55.40
7077;DHT22;3579;48.956;9.154;2023-12-20T01:22:17;15.70;55.60
7077;DHT22;3579;48.956;9.154;2023-12-20T01:24:43;15.70;55.60
7077;DHT22;3579;48.956;9.154;2023-12-20T01:27:09;15.70;55.70
7077;DHT22;3579;48.956;9.154;2023-12-20T01:29:35;15.60;55.60
7077;DHT22;3579;48.956;9.154;2023-12-20T01:32:01;15.60;55.70
7077;DHT22;3579;48.956;9.154;2023-12-20T01:34:27;15.60;55.70
7077;DHT22;3579;48.956;9.154;2023-12-20T01:36:53;15.60;55.70
7077;DHT22;3579;48.956;9.154;2023-12-20T01:39:19;15.60;55.80
7077;DHT22;3579;48.956;9.154;2023-12-20T01:41:45;15.50;55.30
7077;DHT22;3579;48.956;9.154;2023-12-20T01:44:11;15.50;55.70
7077;DHT22;3579;48.956;9.154;2023-12-20T01:46:37;15.50;55.70
7077;DHT22;3579;48.956;9.154;2023-12-20T01:49:04;16.60;56.70
7077;DHT22;3579;48.956;9.154;2023-12-20T01:51:30;15.50;55.80
7077;DHT22;3579;48.956;9.154;2023-12-20T01:53:57;15.50;55.80
7077;DHT22;3579;48.956;9.154;2023-12-20T01:56:24;15.50;55.80
7077;DHT22;3579;48.956;9.154;2023-12-20T01:58:50;15.40;55.80
7077;DHT22;3579;48.956;9.154;2023-12-20T02:01:16;15.40;55.40
7077;DHT22;3579;48.956;9.154;2023-12-20T02:06:15;15.40;55.40
7077;DHT22;3579;48.956;9.154;2023-12-20T02:08:41;15.40;55.90
7077;DHT22;3579;48.956;9.154;2023-12-20T02:11:08;15.40;55.90
7077;DHT22;3579;48.956;9.154;2023-12-20T02:13:34;15.40;56.00
7077;DHT22;3579;48.956;9.154;2023-12-20T02:16:00;15.40;56.00
7077;DHT22;3579;48.956;9.154;2023-12-20T02:18:26;15.30;56.00
7077;DHT22;3579;48.956;9.154;2023-12-20T02:20:52;15.30;56.00
7077;DHT22;3579;48.956;9.154;2023-12-20T02:23:19;15.30;56.00
7077;DHT22;3579;48.956;9.154;2023-12-20T02:25:45;15.30;56.10
7077;DHT22;3579;48.956;9.154;2023-12-20T02:28:11;15.30;56.10
7077;DHT22;3579;48.956;9.154;2023-12-20T02:30:37;15.30;56.10
7077;DHT22;3579;48.956;9.154;2023-12-20T02:33:07;15.20;56.10
7077;DHT22;3579;48.956;9.154;2023-12-20T02:35:36;15.20;56.10
7077;DHT22;3579;48.956;9.154;2023-12-20T02:38:02;15.20;56.10
7077;DHT22;3579;48.956;9.154;2023-12-20T02:40:28;15.20;56.10
7077;DHT22;3579;48.956;9.154;2023-12-20T02:42:54;15.20;56.10
7077;DHT22;3579;48.956;9.154;2023-12-20T02:45:20;15.20;56.20
7077;DHT22;3579;48.956;9.154;2023-12-20T02:47:46;15.20;56.20
7077;DHT22;3579;48.956;9.154;2023-12-20T02:50:12;15.20;56.30
7077;DHT22;3579;48.956;9.154;2023-12-20T02:52:38;15.10;56.20
7077;DHT22;3579;48.956;9.154;2023-12-20T02:55:04;15.10;56.20
7077;DHT22;3579;48.956;9.154;2023-12-20T02:57:30;15.10;56.30
7077;DHT22;3579;48.956;9.154;2023-12-20T02:59:57;15.10;56.30
7077;DHT22;3579;48.956;9.154;2023-12-20T03:02:23;15.10;56.30
7077;DHT22;3579;48.956;9.154;2023-12-20T03:04:50;15.10;56.30
7077;DHT22;3579;48.956;9.154;2023-12-20T03:07:16;15.10;56.30
7077;DHT22;3579;48.956;9.154;2023-12-20T03:09:42;15.10;56.30
7077;DHT22;3579;48.956;9.154;2023-12-20T03:12:08;15.10;56.30
7077;DHT22;3579;48.956;9.154;2023-12-20T03:14:34;15.00;56.30
7077;DHT22;3579;48.956;9.154;2023-12-20T03:17:00;15.00;56.30
7077;DHT22;3579;48.956;9.154;2023-12-20T03:19:26;15.00;56.30
7077;DHT22;3579;48.956;9.154;2023-12-20T03:21:52;15.00;56.30
7077;DHT22;3579;48.956;9.154;2023-12-20T03:24:19;15.00;56.40
7077;DHT22;3579;48.956;9.154;2023-12-20T03:26:45;15.00;56.40
7077;DHT22;3579;48.956;9.154;2023-12-20T03:29:11;15.00;56.50
7077;DHT22;3579;48.956;9.154;2023-12-20T03:31:37;14.90;56.40
7077;DHT22;3579;48.956;9.154;2023-12-20T03:34:03;15.00;56.50
7077;DHT22;3579;48.956;9.154;2023-12-20T03:36:29;14.90;56.50
7077;DHT22;3579;48.956;9.154;2023-12-20T03:38:55;14.90;56.50
7077;DHT22;3579;48.956;9.154;2023-12-20T03:41:21;14.90;56.50
7077;DHT22;3579;48.956;9.154;2023-12-20T03:43:47;14.90;56.50
7077;DHT22;3579;48.956;9.154;2023-12-20T03:46:13;14.90;56.50
7077;DHT22;3579;48.956;9.154;2023-12-20T03:48:39;14.90;56.50
7077;DHT22;3579;48.956;9.154;2023-12-20T03:51:05;14.90;56.60
7077;DHT22;3579;48.956;9.154;2023-12-20T03:53:31;14.90;56.60
7077;DHT22;3579;48.956;9.154;2023-12-20T03:55:57;14.90;56.60
7077;DHT22;3579;48.956;9.154;2023-12-20T03:58:23;14.90;56.70
7077;DHT22;3579;48.956;9.154;2023-12-20T04:00:49;14.80;56.60
7077;DHT22;3579;48.956;9.154;2023-12-20T04:03:15;14.80;56.60
7077;DHT22;3579;48.956;9.154;2023-12-20T04:05:41;14.80;56.60
7077;DHT22;3579;48.956;9.154;2023-12-20T04:08:09;14.80;56.60
7077;DHT22;3579;48.956;9.154;2023-12-20T04:10:35;14.80;56.60
7077;DHT22;3579;48.956;9.154;2023-12-20T04:13:03;14.80;56.70
7077;DHT22;3579;48.956;9.154;2023-12-20T04:15:29;14.80;56.70
7077;DHT22;3579;48.956;9.154;2023-12-20T04:17:55;14.80;56.80
7077;DHT22;3579;48.956;9.154;2023-12-20T04:20:21;14.80;56.80
7077;DHT22;3579;48.956;9.154;2023-12-20T04:22:47;14.70;56.70
7077;DHT22;3579;48.956;9.154;2023-12-20T04:25:13;14.70;56.70
7077;DHT22;3579;48.956;9.154;2023-12-20T04:27:39;14.70;56.80
7077;DHT22;3579;48.956;9.154;2023-12-20T04:30:06;14.70;56.80
7077;DHT22;3579;48.956;9.154;2023-12-20T04:32:33;14.70;56.80
7077;DHT22;3579;48.956;9.154;2023-12-20T04:34:59;14.70;56.80
7077;DHT22;3579;48.956;9.154;2023-12-20T04:37:25;14.70;56.80
7077;DHT22;3579;48.956;9.154;2023-12-20T04:39:51;14.70;56.80
7077;DHT22;3579;48.956;9.154;2023-12-20T04:42:17;14.70;56.80
7077;DHT22;3579;48.956;9.154;2023-12-20T04:44:43;14.70;56.90
7077;DHT22;3579;48.956;9.154;2023-12-20T04:47:12;14.70;56.90
7077;DHT22;3579;48.956;9.154;2023-12-20T04:49:38;14.60;56.80
7077;DHT22;3579;48.956;9.154;2023-12-20T04:52:04;14.60;56.90
7077;DHT22;3579;48.956;9.154;2023-12-20T04:54:31;14.60;56.90
7077;DHT22;3579;48.956;9.154;2023-12-20T04:56:57;14.60;56.90
7077;DHT22;3579;48.956;9.154;2023-12-20T04:59:23;14.60;57.00
7077;DHT22;3579;48.956;9.154;2023-12-20T05:01:49;14.60;57.00
7077;DHT22;3579;48.956;9.154;2023-12-20T05:04:15;14.60;57.00
7077;DHT22;3579;48.956;9.154;2023-12-20T05:06:41;14.60;57.00
7077;DHT22;3579;48.956;9.154;2023-12-20T05:09:07;14.50;57.00
7077;DHT22;3579;48.956;9.154;2023-12-20T05:11:35;14.50;57.00
7077;DHT22;3579;48.956;9.154;2023-12-20T05:14:01;14.50;57.00
7077;DHT22;3579;48.956;9.154;2023-12-20T05:16:27;14.50;57.00
7077;DHT22;3579;48.956;9.154;2023-12-20T05:18:53;14.50;57.00
7077;DHT22;3579;48.956;9.154;2023-12-20T05:21:19;14.50;57.00
7077;DHT22;3579;48.956;9.154;2023-12-20T05:23:45;14.50;57.00
7077;DHT22;3579;48.956;9.154;2023-12-20T05:26:12;14.50;57.60
7077;DHT22;3579;48.956;9.154;2023-12-20T05:28:38;14.50;57.10
7077;DHT22;3579;48.956;9.154;2023-12-20T05:31:04;14.50;57.10
7077;DHT22;3579;48.956;9.154;2023-12-20T05:33:30;14.50;57.10
7077;DHT22;3579;48.956;9.154;2023-12-20T05:35:56;14.40;57.10
7077;DHT22;3579;48.956;9.154;2023-12-20T05:38:22;14.40;57.10
7077;DHT22;3579;48.956;9.154;2023-12-20T05:40:48;14.40;57.10
7077;DHT22;3579;48.956;9.154;2023-12-20T05:43:14;14.40;57.20
7077;DHT22;3579;48.956;9.154;2023-12-20T05:45:40;14.40;57.20
7077;DHT22;3579;48.956;9.154;2023-12-20T05:48:06;14.40;57.30
7077;DHT22;3579;48.956;9.154;2023-12-20T05:50:32;14.40;57.20
7077;DHT22;3579;48.956;9.154;2023-12-20T05:52:58;14.40;57.30
7077;DHT22;3579;48.956;9.154;2023-12-20T05:55:24;14.40;57.30
7077;DHT22;3579;48.956;9.154;2023-12-20T05:57:50;14.40;57.30
7077;DHT22;3579;48.956;9.154;2023-12-20T06:00:17;14.40;57.90
7077;DHT22;3579;48.956;9.154;2023-12-20T06:02:43;14.30;57.20
7077;DHT22;3579;48.956;9.154;2023-12-20T06:05:09;14.30;57.30
7077;DHT22;3579;48.956;9.154;2023-12-20T06:07:35;14.30;57.30
7077;DHT22;3579;48.956;9.154;2023-12-20T06:10:01;14.30;57.30
7077;DHT22;3579;48.956;9.154;2023-12-20T06:12:27;14.30;57.30
7077;DHT22;3579;48.956;9.154;2023-12-20T06:14:54;14.30;57.40
7077;DHT22;3579;48.956;9.154;2023-12-20T06:17:20;14.30;57.40
7077;DHT22;3579;48.956;9.154;2023-12-20T06:19:46;14.30;57.40
7077;DHT22;3579;48.956;9.154;2023-12-20T06:22:15;14.30;57.40
7077;DHT22;3579;48.956;9.154;2023-12-20T06:24:41;14.30;57.40
7077;DHT22;3579;48.956;9.154;2023-12-20T06:27:07;14.30;57.40
7077;DHT22;3579;48.956;9.154;2023-12-20T06:29:33;14.20;57.40
7077;DHT22;3579;48.956;9.154;2023-12-20T06:32:00;14.20;57.40
7077;DHT22;3579;48.956;9.154;2023-12-20T06:34:26;13.80;57.10
7077;DHT22;3579;48.956;9.154;2023-12-20T06:36:52;14.20;57.40
7077;DHT22;3579;48.956;9.154;2023-12-20T06:39:18;14.20;57.40
7077;DHT22;3579;48.956;9.154;2023-12-20T06:41:45;14.20;57.50
7077;DHT22;3579;48.956;9.154;2023-12-20T06:44:11;14.20;57.50
7077;DHT22;3579;48.956;9.154;2023-12-20T06:46:37;14.20;57.50
7077;DHT22;3579;48.956;9.154;2023-12-20T06:49:03;14.20;57.50
7077;DHT22;3579;48.956;9.154;2023-12-20T06:51:29;14.20;57.50
7077;DHT22;3579;48.956;9.154;2023-12-20T06:53:56;14.20;57.60
7077;DHT22;3579;48.956;9.154;2023-12-20T06:56:22;14.20;57.60
7077;DHT22;3579;48.956;9.154;2023-12-20T06:58:48;14.20;57.60
7077;DHT22;3579;48.956;9.154;2023-12-20T07:01:15;14.10;57.60
7077;DHT22;3579;48.956;9.154;2023-12-20T07:03:41;14.10;57.60
7077;DHT22;3579;48.956;9.154;2023-12-20T07:06:08;14.10;57.60
7077;DHT22;3579;48.956;9.154;2023-12-20T07:08:34;14.10;57.60
7077;DHT22;3579;48.956;9.154;2023-12-20T07:11:00;14.10;57.60
7077;DHT22;3579;48.956;9.154;2023-12-20T07:13:26;14.10;57.60
7077;DHT22;3579;48.956;9.154;2023-12-20T07:15:52;14.10;57.70
7077;DHT22;3579;48.956;9.154;2023-12-20T07:18:18;14.10;57.70
7077;DHT22;3579;48.956;9.154;2023-12-20T07:20:44;14.10;57.70
7077;DHT22;3579;48.956;9.154;2023-12-20T07:23:10;14.10;57.80
7077;DHT22;3579;48.956;9.154;2023-12-20T07:25:37;14.10;57.80
7077;DHT22;3579;48.956;9.154;2023-12-20T07:28:03;14.10;57.80
7077;DHT22;3579;48.956;9.154;2023-12-20T07:30:30;14.10;57.80
7077;DHT22;3579;48.956;9.154;2023-12-20T07:32:56;14.10;57.80
7077;DHT22;3579;48.956;9.154;2023-12-20T07:35:23;14.10;57.80
7077;DHT22;3579;48.956;9.154;2023-12-20T07:37:50;14.00;57.80
7077;DHT22;3579;48.956;9.154;2023-12-20T07:40:16;14.00;57.80
7077;DHT22;3579;48.956;9.154;2023-12-20T07:42:43;14.00;57.80
7077;DHT22;3579;48.956;9.154;2023-12-20T07:45:09;14.00;57.80
7077;DHT22;3579;48.956;9.154;2023-12-20T07:47:36;14.00;57.80
7077;DHT22;3579;48.956;9.154;2023-12-20T07:50:02;14.00;57.90
7077;DHT22;3579;48.956;9.154;2023-12-20T07:52:29;14.00;57.90
7077;DHT22;3579;48.956;9.154;2023-12-20T07:54:55;14.00;57.90
7077;DHT22;3579;48.956;9.154;2023-12-20T07:57:22;14.00;57.90
7077;DHT22;3579;48.956;9.154;2023-12-20T07:59:48;14.00;57.90
7077;DHT22;3579;48.956;9.154;2023-12-20T08:02:14;14.00;57.90
7077;DHT22;3579;48.956;9.154;2023-12-20T08:04:40;14.00;57.60
7077;DHT22;3579;48.956;9.154;2023-12-20T08:07:07;14.10;58.00
7077;DHT22;3579;48.956;9.154;2023-12-20T08:09:33;14.10;58.10
7077;DHT22;3579;48.956;9.154;2023-12-20T08:12:00;14.10;58.00
7077;DHT22;3579;48.956;9.154;2023-12-20T08:14:26;14.10;58.00
7077;DHT22;3579;48.956;9.154;2023-12-20T08:16:52;14.10;58.00
7077;DHT22;3579;48.956;9.154;2023-12-20T08:19:18;14.20;58.10
7077;DHT22;3579;48.956;9.154;2023-12-20T08:21:44;14.20;58.00
7077;DHT22;3579;48.956;9.154;2023-12-20T08:24:10;14.20;58.00
7077;DHT22;3579;48.956;9.154;2023-12-20T08:26:36;14.30;58.00
7077;DHT22;3579;48.956;9.154;2023-12-20T08:29:03;14.30;58.00
7077;DHT22;3579;48.956;9.154;2023-12-20T08:31:29;14.30;57.40
7077;DHT22;3579;48.956;9.154;2023-12-20T08:33:55;14.40;58.00
7077;DHT22;3579;48.956;9.154;2023-12-20T08:36:21;14.40;57.90
7077;DHT22;3579;48.956;9.154;2023-12-20T08:38:49;14.40;57.90
7077;DHT22;3579;48.956;9.154;2023-12-20T08:41:16;14.50;57.90
7077;DHT22;3579;48.956;9.154;2023-12-20T08:43:43;14.50;57.90
7077;DHT22;3579;48.956;9.154;2023-12-20T08:46:09;14.50;57.90
7077;DHT22;3579;48.956;9.154;2023-12-20T08:48:35;14.50;57.80
7077;DHT22;3579;48.956;9.154;2023-12-20T08:51:05;14.60;57.90
7077;DHT22;3579;48.956;9.154;2023-12-20T08:53:35;14.60;57.90
7077;DHT22;3579;48.956;9.154;2023-12-20T08:56:01;14.60;57.90
7077;DHT22;3579;48.956;9.154;2023-12-20T08:58:28;14.60;57.90
7077;DHT22;3579;48.956;9.154;2023-12-20T09:00:54;14.60;57.80
7077;DHT22;3579;48.956;9.154;2023-12-20T09:03:20;14.70;57.90
7077;DHT22;3579;48.956;9.154;2023-12-20T09:05:46;14.70;57.90
7077;DHT22;3579;48.956;9.154;2023-12-20T09:08:12;14.70;57.90
7077;DHT22;3579;48.956;9.154;2023-12-20T09:10:38;14.70;57.90
7077;DHT22;3579;48.956;9.154;2023-12-20T09:13:04;14.80;57.90
7077;DHT22;3579;48.956;9.154;2023-12-20T09:15:30;14.80;57.80
7077;DHT22;3579;48.956;9.154;2023-12-20T09:17:57;14.90;57.90
7077;DHT22;3579;48.956;9.154;2023-12-20T09:20:24;14.90;57.90
7077;DHT22;3579;48.956;9.154;2023-12-20T09:22:50;14.90;57.80
7077;DHT22;3579;48.956;9.154;2023-12-20T09:25:16;14.90;57.80
7077;DHT22;3579;48.956;9.154;2023-12-20T09:27:43;15.00;57.80
7077;DHT22;3579;48.956;9.154;2023-12-20T09:30:10;15.00;57.80
7077;DHT22;3579;48.956;9.154;2023-12-20T09:32:36;15.00;57.60
7077;DHT22;3579;48.956;9.154;2023-12-20T09:35:02;15.10;57.80
7077;DHT22;3579;48.956;9.154;2023-12-20T09:37:31;15.20;57.70
7077;DHT22;3579;48.956;9.154;2023-12-20T09:39:57;15.20;57.50
7077;DHT22;3579;48.956;9.154;2023-12-20T09:42:32;15.20;57.40
7077;DHT22;3579;48.956;9.154;2023-12-20T09:45:02;15.30;57.40
7077;DHT22;3579;48.956;9.154;2023-12-20T09:47:29;15.40;57.30
7077;DHT22;3579;48.956;9.154;2023-12-20T09:49:55;15.40;57.20
7077;DHT22;3579;48.956;9.154;2023-12-20T09:52:24;15.40;57.10
7077;DHT22;3579;48.956;9.154;2023-12-20T09:54:52;15.50;57.20
7077;DHT22;3579;48.956;9.154;2023-12-20T09:57:19;15.50;57.10
7077;DHT22;3579;48.956;9.154;2023-12-20T09:59:45;15.60;57.10
7077;DHT22;3579;48.956;9.154;2023-12-20T10:02:13;15.60;57.10
7077;DHT22;3579;48.956;9.154;2023-12-20T10:04:48;15.60;57.00
7077;DHT22;3579;48.956;9.154;2023-12-20T10:07:15;15.70;57.10
7077;DHT22;3579;48.956;9.154;2023-12-20T10:09:42;15.70;57.10
7077;DHT22;3579;48.956;9.154;2023-12-20T10:12:08;15.80;56.70
7077;DHT22;3579;48.956;9.154;2023-12-20T10:14:34;15.70;57.10
7077;DHT22;3579;48.956;9.154;2023-12-20T10:17:04;15.80;57.10
7077;DHT22;3579;48.956;9.154;2023-12-20T10:19:31;15.80;57.10
7077;DHT22;3579;48.956;9.154;2023-12-20T10:22:01;15.80;57.00
7077;DHT22;3579;48.956;9.154;2023-12-20T10:24:30;15.80;57.10
7077;DHT22;3579;48.956;9.154;2023-12-20T10:27:06;15.80;57.00
7077;DHT22;3579;48.956;9.154;2023-12-20T10:29:36;15.90;57.10
7077;DHT22;3579;48.956;9.154;2023-12-20T10:32:26;15.90;57.10
7077;DHT22;3579;48.956;9.154;2023-12-20T10:34:53;15.90;57.20
7077;DHT22;3579;48.956;9.154;2023-12-20T10:37:20;15.90;57.20
7077;DHT22;3579;48.956;9.154;2023-12-20T10:39:55;15.90;57.30
7077;DHT22;3579;48.956;9.154;2023-12-20T10:42:22;15.90;57.40
7077;DHT22;3579;48.956;9.154;2023-12-20T10:44:49;15.80;57.30
7077;DHT22;3579;48.956;9.154;2023-12-20T10:47:17;15.90;57.40
7077;DHT22;3579;48.956;9.154;2023-12-20T10:49:45;15.80;57.40
7077;DHT22;3579;48.956;9.154;2023-12-20T10:52:12;15.90;57.40
7077;DHT22;3579;48.956;9.154;2023-12-20T10:54:40;15.80;57.30
7077;DHT22;3579;48.956;9.154;2023-12-20T10:57:07;15.90;57.50
7077;DHT22;3579;48.956;9.154;2023-12-20T10:59:36;15.90;57.50
7077;DHT22;3579;48.956;9.154;2023-12-20T11:02:04;15.80;57.50
7077;DHT22;3579;48.956;9.154;2023-12-20T11:05:06;15.90;57.60
7077;DHT22;3579;48.956;9.154;2023-12-20T11:07:46;15.90;57.70
7077;DHT22;3579;48.956;9.154;2023-12-20T11:10:25;15.80;57.60
7077;DHT22;3579;48.956;9.154;2023-12-20T11:13:06;15.80;57.60
7077;DHT22;3579;48.956;9.154;2023-12-20T11:15:36;15.80;57.60
7077;DHT22;3579;48.956;9.154;2023-12-20T11:18:04;15.80;57.70
7077;DHT22;3579;48.956;9.154;2023-12-20T11:20:41;15.80;57.70
7077;DHT22;3579;48.956;9.154;2023-12-20T11:23:08;15.80;57.70
7077;DHT22;3579;48.956;9.154;2023-12-20T11:25:56;15.80;57.70
7077;DHT22;3579;48.956;9.154;2023-12-20T11:28:26;15.80;57.80
7077;DHT22;3579;48.956;9.154;2023-12-20T11:30:56;15.80;57.80
7077;DHT22;3579;48.956;9.154;2023-12-20T11:33:27;15.80;57.90
7077;DHT22;3579;48.956;9.154;2023-12-20T11:35:56;15.70;57.90
7077;DHT22;3579;48.956;9.154;2023-12-20T11:38:22;15.70;57.90
7077;DHT22;3579;48.956;9.154;2023-12-20T11:40:50;15.70;57.90
7077;DHT22;3579;48.956;9.154;2023-12-20T11:43:35;15.70;57.90
7077;DHT22;3579;48.956;9.154;2023-12-20T11:46:06;15.70;58.00
7077;DHT22;3579;48.956;9.154;2023-12-20T11:48:34;15.70;58.00
7077;DHT22;3579;48.956;9.154;2023-12-20T11:51:00;15.70;58.00
7077;DHT22;3579;48.956;9.154;2023-12-20T11:53:29;15.70;58.10
7077;DHT22;3579;48.956;9.154;2023-12-20T11:56:01;15.70;58.10
7077;DHT22;3579;48.956;9.154;2023-12-20T11:58:29;15.70;58.10
7077;DHT22;3579;48.956;9.154;2023-12-20T12:00:55;15.70;58.20
7077;DHT22;3579;48.956;9.154;2023-12-20T12:03:21;15.70;58.20
7077;DHT22;3579;48.956;9.154;2023-12-20T12:05:50;15.70;58.20
7077;DHT22;3579;48.956;9.154;2023-12-20T12:08:19;15.60;58.10
7077;DHT22;3579;48.956;9.154;2023-12-20T12:10:45;15.60;58.20
7077;DHT22;3579;48.956;9.154;2023-12-20T12:13:12;15.60;58.20
7077;DHT22;3579;48.956;9.154;2023-12-20T12:15:40;15.60;58.20
7077;DHT22;3579;48.956;9.154;2023-12-20T12:18:08;15.60;58.20
7077;DHT22;3579;48.956;9.154;2023-12-20T12:20:34;15.60;58.30
7077;DHT22;3579;48.956;9.154;2023-12-20T12:23:02;15.70;58.30
7077;DHT22;3579;48.956;9.154;2023-12-20T12:25:34;15.60;58.30
7077;DHT22;3579;48.956;9.154;2023-12-20T12:28:01;15.60;58.30
7077;DHT22;3579;48.956;9.154;2023-12-20T12:30:28;15.60;58.40
7077;DHT22;3579;48.956;9.154;2023-12-20T12:32:55;15.50;58.30
7077;DHT22;3579;48.956;9.154;2023-12-20T12:35:21;15.60;58.50
7077;DHT22;3579;48.956;9.154;2023-12-20T12:37:48;15.50;58.40
7077;DHT22;3579;48.956;9.154;2023-12-20T12:40:15;15.50;58.50
7077;DHT22;3579;48.956;9.154;2023-12-20T12:42:43;15.50;58.50
7077;DHT22;3579;48.956;9.154;2023-12-20T12:45:09;15.50;58.50
7077;DHT22;3579;48.956;9.154;2023-12-20T12:47:37;15.50;58.60
7077;DHT22;3579;48.956;9.154;2023-12-20T12:50:04;15.50;59.10
7077;DHT22;3579;48.956;9.154;2023-12-20T12:52:30;15.50;58.60
7077;DHT22;3579;48.956;9.154;2023-12-20T12:54:56;15.40;58.50
7077;DHT22;3579;48.956;9.154;2023-12-20T12:57:23;15.50;58.70
7077;DHT22;3579;48.956;9.154;2023-12-20T12:59:50;15.50;58.60
7077;DHT22;3579;48.956;9.154;2023-12-20T13:02:16;15.50;58.70
7077;DHT22;3579;48.956;9.154;2023-12-20T13:04:42;15.40;58.60
7077;DHT22;3579;48.956;9.154;2023-12-20T13:07:10;15.40;58.60
7077;DHT22;3579;48.956;9.154;2023-12-20T13:09:37;15.40;58.60
7077;DHT22;3579;48.956;9.154;2023-12-20T13:12:05;15.40;58.70
7077;DHT22;3579;48.956;9.154;2023-12-20T13:14:33;15.40;58.70
7077;DHT22;3579;48.956;9.154;2023-12-20T13:17:01;15.40;58.70
7077;DHT22;3579;48.956;9.154;2023-12-20T13:19:27;15.40;58.70
7077;DHT22;3579;48.956;9.154;2023-12-20T13:21:53;15.40;58.70
7077;DHT22;3579;48.956;9.154;2023-12-20T13:24:19;15.40;58.80
7077;DHT22;3579;48.956;9.154;2023-12-20T13:26:45;13.20;57.00
7077;DHT22;3579;48.956;9.154;2023-12-20T13:29:11;15.40;58.80
7077;DHT22;3579;48.956;9.154;2023-12-20T13:31:38;15.40;58.90
7077;DHT22;3579;48.956;9.154;2023-12-20T13:34:06;15.40;58.90
7077;DHT22;3579;48.956;9.154;2023-12-20T13:36:32;15.40;58.90
7077;DHT22;3579;48.956;9.154;2023-12-20T13:38:58;15.30;58.90
7077;DHT22;3579;48.956;9.154;2023-12-20T13:41:24;15.30;58.90
7077;DHT22;3579;48.956;9.154;2023-12-20T13:43:50;15.30;58.90
7077;DHT22;3579;48.956;9.154;2023-12-20T13:46:16;15.30;59.00
7077;DHT22;3579;48.956;9.154;2023-12-20T13:48:43;15.30;59.00
7077;DHT22;3579;48.956;9.154;2023-12-20T13:51:09;15.30;59.00
7077;DHT22;3579;48.956;9.154;2023-12-20T13:53:35;15.30;59.10
7077;DHT22;3579;48.956;9.154;2023-12-20T13:56:01;15.30;59.10
7077;DHT22;3579;48.956;9.154;2023-12-20T13:58:27;15.30;59.10
7077;DHT22;3579;48.956;9.154;2023-12-20T14:00:53;15.20;59.00
7077;DHT22;3579;48.956;9.154;2023-12-20T14:03:19;15.20;59.10
7077;DHT22;3579;48.956;9.154;2023-12-20T14:05:46;15.20;59.10
7077;DHT22;3579;48.956;9.154;2023-12-20T14:08:12;15.20;59.10
7077;DHT22;3579;48.956;9.154;2023-12-20T14:10:38;15.20;59.10
7077;DHT22;3579;48.956;9.154;2023-12-20T14:13:04;15.20;59.10
7077;DHT22;3579;48.956;9.154;2023-12-20T14:15:31;15.20;59.20
7077;DHT22;3579;48.956;9.154;2023-12-20T14:18:05;15.20;59.20
7077;DHT22;3579;48.956;9.154;2023-12-20T14:20:32;15.20;59.30
7077;DHT22;3579;48.956;9.154;2023-12-20T14:23:01;15.10;59.20
7077;DHT22;3579;48.956;9.154;2023-12-20T14:25:27;15.10;59.20
7077;DHT22;3579;48.956;9.154;2023-12-20T14:27:53;15.10;59.30
7077;DHT22;3579;48.956;9.154;2023-12-20T14:30:19;15.10;59.30
7077;DHT22;3579;48.956;9.154;2023-12-20T14:32:45;15.10;59.30
7077;DHT22;3579;48.956;9.154;2023-12-20T14:35:14;15.10;59.40
7077;DHT22;3579;48.956;9.154;2023-12-20T14:37:40;15.10;59.40
7077;DHT22;3579;48.956;9.154;2023-12-20T14:40:07;15.10;59.50
7077;DHT22;3579;48.956;9.154;2023-12-20T14:42:36;15.10;59.40
7077;DHT22;3579;48.956;9.154;2023-12-20T14:45:03;15.10;59.50
7077;DHT22;3579;48.956;9.154;2023-12-20T14:47:30;15.00;59.50
7077;DHT22;3579;48.956;9.154;2023-12-20T14:49:56;15.00;59.50
7077;DHT22;3579;48.956;9.154;2023-12-20T14:52:22;15.00;59.50
7077;DHT22;3579;48.956;9.154;2023-12-20T14:54:49;15.00;59.50
7077;DHT22;3579;48.956;9.154;2023-12-20T14:57:15;15.00;59.60
7077;DHT22;3579;48.956;9.154;2023-12-20T14:59:41;15.00;59.60
7077;DHT22;3579;48.956;9.154;2023-12-20T15:02:09;14.90;59.50
7077;DHT22;3579;48.956;9.154;2023-12-20T15:04:35;14.90;59.60
7077;DHT22;3579;48.956;9.154;2023-12-20T15:07:01;15.00;59.70
7077;DHT22;3579;48.956;9.154;2023-12-20T15:09:27;15.00;59.70
7077;DHT22;3579;48.956;9.154;2023-12-20T15:11:55;14.90;59.70
7077;DHT22;3579;48.956;9.154;2023-12-20T15:14:21;14.90;59.70
7077;DHT22;3579;48.956;9.154;2023-12-20T15:16:47;14.90;59.70
7077;DHT22;3579;48.956;9.154;2023-12-20T15:19:14;14.90;59.70
7077;DHT22;3579;48.956;9.154;2023-12-20T15:21:40;14.90;59.80
7077;DHT22;3579;48.956;9.154;2023-12-20T15:24:11;14.90;59.90
7077;DHT22;3579;48.956;9.154;2023-12-20T15:26:46;14.90;59.90
7077;DHT22;3579;48.956;9.154;2023-12-20T15:29:12;14.80;59.80
7077;DHT22;3579;48.956;9.154;2023-12-20T15:31:45;14.80;59.90
7077;DHT22;3579;48.956;9.154;2023-12-20T15:34:11;14.80;59.90
7077;DHT22;3579;48.956;9.154;2023-12-20T15:36:39;14.80;60.00
7077;DHT22;3579;48.956;9.154;2023-12-20T15:39:05;14.80;60.00
7077;DHT22;3579;48.956;9.154;2023-12-20T15:41:34;14.80;60.00
7077;DHT22;3579;48.956;9.154;2023-12-20T15:44:00;14.70;60.00
7077;DHT22;3579;48.956;9.154;2023-12-20T15:46:26;14.80;60.10
7077;DHT22;3579;48.956;9.154;2023-12-20T15:48:52;14.80;60.10
7077;DHT22;3579;48.956;9.154;2023-12-20T15:51:20;14.70;60.00
7077;DHT22;3579;48.956;9.154;2023-12-20T15:53:46;14.70;60.10
7077;DHT22;3579;48.956;9.154;2023-12-20T15:56:12;14.70;60.20
7077;DHT22;3579;48.956;9.154;2023-12-20T15:58:38;14.70;60.20
7077;DHT22;3579;48.956;9.154;2023-12-20T16:01:05;14.70;60.30
7077;DHT22;3579;48.956;9.154;2023-12-20T16:03:31;14.70;60.30